Time;durP1;ratioP1;P1;durP2;ratioP2;P2;SDS_P1;SDS_P2;PMS_P1;PMS_P2;Temp;Humidity;BMP_temperature;BMP_pressure;BME280_temperature;BME280_humidity;BME280_pressure;Samples;Min_cycle;Max_cycle;Signal;HPM_P1;HPM_P2
2022/05/20 00:00:31;;;;;;;;;;;15.30;99.90;;;;;;5059824;28;37853;-59
2022/05/20 00:02:59;;;;;;;;;;;15.30;99.90;;;;;;5060824;28;37028;-59
2022/05/20 00:05:26;;;;;;;;;;;15.30;99.90;;;;;;5062000;28;39456;-59
2022/05/20 00:07:54;;;;;;;;;;;15.30;99.90;;;;;;5061873;28;37631;-59
2022/05/20 00:10:21;;;;;;;;;;;15.30;99.90;;;;;;5062423;28;38332;-59
2022/05/20 00:12:49;;;;;;;;;;;15.30;99.90;;;;;;5061117;28;36096;-59
2022/05/20 00:15:18;;;;;;;;;;;15.30;99.90;;;;;;5061083;28;37788;-59
2022/05/20 00:17:45;;;;;;;;;;;15.30;99.90;;;;;;5062223;28;38463;-59
2022/05/20 00:20:14;;;;;;;;;;;15.30;99.90;;;;;;5061543;28;40050;-59
2022/05/20 00:22:41;;;;;;;;;;;15.30;99.90;;;;;;5061798;28;38151;-59
2022/05/20 00:27:54;;;;;;;;;;;15.20;99.90;;;;;;5062361;28;40481;-58
2022/05/20 00:30:22;;;;;;;;;;;15.40;99.90;;;;;;5061284;28;38228;-58
2022/05/20 00:32:49;;;;;;;;;;;15.20;99.90;;;;;;5060823;28;37034;-59
2022/05/20 00:35:17;;;;;;;;;;;15.20;99.90;;;;;;5059883;28;37833;-59
2022/05/20 00:37:44;;;;;;;;;;;15.10;99.90;;;;;;5061162;28;38866;-59
2022/05/20 00:40:13;;;;;;;;;;;15.10;99.90;;;;;;5061260;28;40628;-60
2022/05/20 00:42:41;;;;;;;;;;;15.10;99.90;;;;;;5060425;28;36954;-59
2022/05/20 00:45:09;;;;;;;;;;;15.00;99.90;;;;;;5060795;28;36339;-59
2022/05/20 00:47:37;;;;;;;;;;;15.00;99.90;;;;;;5058375;28;38511;-59
2022/05/20 00:50:06;;;;;;;;;;;14.90;99.90;;;;;;5059512;28;39367;-58
2022/05/20 00:52:35;;;;;;;;;;;14.70;99.90;;;;;;5061224;28;35160;-59
2022/05/20 00:55:05;;;;;;;;;;;14.60;99.90;;;;;;5060975;28;39318;-59
2022/05/20 00:57:36;;;;;;;;;;;14.60;99.90;;;;;;5061284;28;39556;-59
2022/05/20 01:00:05;;;;;;;;;;;14.50;99.90;;;;;;5059677;28;37392;-59
2022/05/20 01:02:33;;;;;;;;;;;14.40;99.90;;;;;;5059638;28;37301;-59
2022/05/20 01:05:03;;;;;;;;;;;14.30;99.90;;;;;;5060465;28;37657;-59
2022/05/20 01:07:30;;;;;;;;;;;14.30;99.90;;;;;;5060143;28;38514;-59
2022/05/20 01:09:57;;;;;;;;;;;14.20;99.90;;;;;;5059214;28;38420;-59
2022/05/20 01:12:26;;;;;;;;;;;14.20;99.90;;;;;;5060416;28;35038;-58
2022/05/20 01:14:53;;;;;;;;;;;14.20;99.90;;;;;;5060624;28;37594;-58
2022/05/20 01:17:21;;;;;;;;;;;14.10;99.90;;;;;;5058922;28;38440;-59
2022/05/20 01:19:49;;;;;;;;;;;14.10;99.90;;;;;;5061236;28;38049;-59
2022/05/20 01:22:26;;;;;;;;;;;14.10;99.90;;;;;;5060235;28;37453;-60
2022/05/20 01:24:55;;;;;;;;;;;14.10;99.90;;;;;;5060059;28;38447;-59
2022/05/20 01:27:22;;;;;;;;;;;14.00;99.90;;;;;;5058993;28;38204;-58
2022/05/20 01:29:49;;;;;;;;;;;14.00;99.90;;;;;;5059096;28;40818;-59
2022/05/20 01:32:16;;;;;;;;;;;14.00;99.90;;;;;;5059069;28;36265;-59
2022/05/20 01:34:43;;;;;;;;;;;14.00;99.90;;;;;;5060735;28;39995;-59
2022/05/20 01:37:10;;;;;;;;;;;13.90;99.90;;;;;;5059686;28;38839;-59
2022/05/20 01:39:37;;;;;;;;;;;13.90;99.90;;;;;;5060627;28;37863;-58
2022/05/20 01:42:08;;;;;;;;;;;13.90;99.90;;;;;;5060344;28;35210;-59
2022/05/20 01:44:36;;;;;;;;;;;13.90;99.90;;;;;;5059711;28;38167;-59
2022/05/20 01:47:06;;;;;;;;;;;13.90;99.90;;;;;;5060003;28;37171;-59
2022/05/20 01:49:35;;;;;;;;;;;13.90;99.90;;;;;;5059529;28;38227;-59
2022/05/20 01:52:07;;;;;;;;;;;14.00;99.90;;;;;;5060095;28;36562;-59
2022/05/20 01:54:38;;;;;;;;;;;14.00;99.90;;;;;;5059791;28;39607;-59
2022/05/20 01:57:09;;;;;;;;;;;14.00;99.90;;;;;;5059803;28;38692;-59
2022/05/20 01:59:39;;;;;;;;;;;14.00;99.90;;;;;;5062176;28;39508;-59
2022/05/20 02:02:09;;;;;;;;;;;14.00;99.90;;;;;;5066788;28;35181;-59
2022/05/20 02:04:43;;;;;;;;;;;14.00;99.90;;;;;;5065288;28;37785;-59
2022/05/20 02:07:12;;;;;;;;;;;14.00;99.90;;;;;;5067193;28;38459;-59
2022/05/20 02:09:41;;;;;;;;;;;14.00;99.90;;;;;;5067059;28;37442;-58
2022/05/20 02:12:11;;;;;;;;;;;14.00;99.90;;;;;;5066506;28;36589;-59
2022/05/20 02:14:41;;;;;;;;;;;14.00;99.90;;;;;;5067036;28;36512;-59
2022/05/20 02:17:09;;;;;;;;;;;13.90;99.90;;;;;;5066465;28;38705;-59
2022/05/20 02:19:39;;;;;;;;;;;13.90;99.90;;;;;;5066383;28;37760;-59
2022/05/20 02:22:08;;;;;;;;;;;13.90;99.90;;;;;;5065582;28;36674;-59
2022/05/20 02:24:35;;;;;;;;;;;13.90;99.90;;;;;;5065936;28;39213;-58
2022/05/20 02:27:05;;;;;;;;;;;13.80;99.90;;;;;;5065830;28;40818;-59
2022/05/20 02:29:37;;;;;;;;;;;13.80;99.90;;;;;;5066784;28;37692;-59
2022/05/20 02:32:06;;;;;;;;;;;13.80;99.90;;;;;;5066496;28;36957;-59
2022/05/20 02:34:34;;;;;;;;;;;13.70;99.90;;;;;;5064963;28;38893;-58
2022/05/20 02:37:01;;;;;;;;;;;13.70;99.90;;;;;;5065973;28;40032;-58
2022/05/20 02:39:28;;;;;;;;;;;13.80;99.90;;;;;;5066280;28;36619;-59
2022/05/20 02:41:55;;;;;;;;;;;13.70;99.90;;;;;;5066838;28;36263;-58
2022/05/20 02:44:22;;;;;;;;;;;13.70;99.90;;;;;;5066828;28;36624;-59
2022/05/20 02:46:51;;;;;;;;;;;13.60;99.90;;;;;;5066270;28;38358;-59
2022/05/20 02:49:18;;;;;;;;;;;13.60;99.90;;;;;;5065754;28;37380;-59
2022/05/20 02:51:45;;;;;;;;;;;13.60;99.90;;;;;;5064735;28;35089;-58
2022/05/20 02:54:12;;;;;;;;;;;13.60;99.90;;;;;;5066159;28;39105;-57
2022/05/20 02:56:40;;;;;;;;;;;13.60;99.90;;;;;;5065380;28;39002;-58
2022/05/20 03:04:37;;;;;;;;;;;13.60;99.90;;;;;;5063575;28;37434;-59
2022/05/20 03:07:04;;;;;;;;;;;13.60;99.90;;;;;;5062477;28;38237;-58
2022/05/20 03:09:31;;;;;;;;;;;13.60;99.90;;;;;;5062583;28;36679;-59
2022/05/20 03:11:58;;;;;;;;;;;13.60;99.90;;;;;;5062681;28;36524;-59
2022/05/20 03:14:25;;;;;;;;;;;13.50;99.90;;;;;;5062777;28;36495;-59
2022/05/20 03:16:54;;;;;;;;;;;13.50;99.90;;;;;;5062105;28;39856;-58
2022/05/20 03:19:21;;;;;;;;;;;13.50;99.90;;;;;;5062960;28;38934;-59
2022/05/20 03:21:50;;;;;;;;;;;13.40;99.90;;;;;;5063271;28;36241;-58
2022/05/20 03:24:17;;;;;;;;;;;13.40;99.90;;;;;;5063484;28;39100;-58
2022/05/20 03:26:44;;;;;;;;;;;13.40;99.90;;;;;;5063233;28;39671;-58
2022/05/20 03:29:11;;;;;;;;;;;13.40;99.90;;;;;;5062685;28;38245;-59
2022/05/20 03:31:39;;;;;;;;;;;13.40;99.90;;;;;;5061919;28;37317;-58
2022/05/20 03:34:09;;;;;;;;;;;13.40;99.90;;;;;;5063022;28;37920;-59
2022/05/20 03:36:37;;;;;;;;;;;13.40;99.90;;;;;;5062597;28;39124;-59
2022/05/20 03:39:06;;;;;;;;;;;13.40;99.90;;;;;;5061616;28;38378;-58
2022/05/20 03:41:33;;;;;;;;;;;13.30;99.90;;;;;;5061389;28;34991;-59
2022/05/20 03:44:00;;;;;;;;;;;13.40;99.90;;;;;;5061432;28;37673;-58
2022/05/20 03:46:27;;;;;;;;;;;13.40;99.90;;;;;;5061762;28;39010;-58
2022/05/20 03:48:54;;;;;;;;;;;13.40;99.90;;;;;;5062723;28;37597;-58
2022/05/20 03:51:23;;;;;;;;;;;13.40;99.90;;;;;;5061792;28;37121;-58
2022/05/20 03:53:50;;;;;;;;;;;13.40;99.90;;;;;;5062456;28;37392;-58
2022/05/20 03:56:17;;;;;;;;;;;13.40;99.90;;;;;;5062072;28;37136;-58
2022/05/20 03:58:44;;;;;;;;;;;13.40;99.90;;;;;;5061937;28;38885;-58
2022/05/20 04:03:57;;;;;;;;;;;13.40;99.90;;;;;;5064709;28;40350;-58
2022/05/20 04:06:26;;;;;;;;;;;13.40;99.90;;;;;;5064505;28;38443;-58
2022/05/20 04:08:53;;;;;;;;;;;13.40;99.90;;;;;;5065331;28;39612;-46
2022/05/20 04:11:20;;;;;;;;;;;13.40;99.90;;;;;;5064409;28;35123;-46
2022/05/20 04:13:47;;;;;;;;;;;13.40;99.90;;;;;;5065757;28;39044;-45
2022/05/20 04:16:15;;;;;;;;;;;13.50;99.90;;;;;;5063786;28;37435;-46
2022/05/20 04:18:43;;;;;;;;;;;13.50;99.90;;;;;;5064587;28;37223;-46
2022/05/20 04:21:11;;;;;;;;;;;13.60;99.90;;;;;;5065350;28;37825;-47
2022/05/20 04:23:39;;;;;;;;;;;13.60;99.90;;;;;;5062190;28;39379;-45
2022/05/20 04:26:06;;;;;;;;;;;13.60;99.90;;;;;;5062812;28;38504;-44
2022/05/20 04:28:34;;;;;;;;;;;13.60;99.90;;;;;;5063574;28;38891;-45
2022/05/20 04:31:03;;;;;;;;;;;13.60;99.90;;;;;;5063772;28;36739;-46
2022/05/20 04:33:30;;;;;;;;;;;13.70;99.90;;;;;;5063518;28;39970;-46
2022/05/20 04:35:57;;;;;;;;;;;13.60;99.90;;;;;;5064995;28;38175;-47
2022/05/20 04:38:24;;;;;;;;;;;13.60;99.90;;;;;;5062805;28;37651;-48
2022/05/20 04:49:05;;;;;;;;;;;13.80;99.90;;;;;;5064581;28;38878;-45
2022/05/20 04:51:33;;;;;;;;;;;13.90;99.90;;;;;;5062026;28;38015;-45
2022/05/20 04:56:45;;;;;;;;;;;14.10;99.90;;;;;;5063766;28;39205;-45
2022/05/20 04:59:13;;;;;;;;;;;14.20;99.90;;;;;;5063627;28;38031;-45
2022/05/20 05:01:40;;;;;;;;;;;14.40;99.90;;;;;;5061933;28;37002;-45
2022/05/20 05:04:07;;;;;;;;;;;14.50;99.90;;;;;;5060568;28;37584;-45
2022/05/20 05:06:35;;;;;;;;;;;14.50;99.90;;;;;;5059919;28;38510;-46
2022/05/20 05:09:02;;;;;;;;;;;14.70;99.90;;;;;;5061328;28;38880;-45
2022/05/20 05:11:29;;;;;;;;;;;14.70;99.90;;;;;;5061918;28;34954;-46
2022/05/20 05:13:58;;;;;;;;;;;14.90;99.90;;;;;;5061622;28;39291;-48
2022/05/20 05:16:25;;;;;;;;;;;15.00;99.90;;;;;;5060228;28;39828;-45
2022/05/20 05:18:52;;;;;;;;;;;15.10;99.90;;;;;;5061127;28;38006;-47
2022/05/20 05:21:19;;;;;;;;;;;15.30;99.90;;;;;;5059238;28;36185;-47
2022/05/20 05:23:46;;;;;;;;;;;15.40;99.90;;;;;;5061298;28;36447;-46
2022/05/20 05:26:13;;;;;;;;;;;15.50;99.90;;;;;;5058533;28;38875;-45
2022/05/20 05:28:40;;;;;;;;;;;15.60;99.90;;;;;;5059262;28;38656;-46
2022/05/20 05:31:09;;;;;;;;;;;15.80;99.90;;;;;;5059613;28;37627;-45
2022/05/20 05:33:36;;;;;;;;;;;15.90;99.90;;;;;;5059259;28;40610;-46
2022/05/20 05:36:03;;;;;;;;;;;16.00;99.90;;;;;;5062933;28;38581;-45
2022/05/20 05:38:31;;;;;;;;;;;16.10;99.90;;;;;;5064308;28;40618;-47
2022/05/20 05:40:58;;;;;;;;;;;16.20;99.90;;;;;;5063700;28;35425;-46
2022/05/20 05:43:26;;;;;;;;;;;16.30;99.90;;;;;;5064324;28;39476;-48
2022/05/20 05:45:53;;;;;;;;;;;16.40;99.90;;;;;;5062449;28;37020;-46
2022/05/20 05:48:21;;;;;;;;;;;16.30;99.90;;;;;;5063128;28;38128;-48
2022/05/20 05:50:49;;;;;;;;;;;16.20;99.90;;;;;;5062798;28;36507;-45
2022/05/20 05:53:16;;;;;;;;;;;16.30;99.90;;;;;;5063167;28;38487;-45
2022/05/20 05:55:44;;;;;;;;;;;16.20;99.90;;;;;;5063624;28;39367;-46
2022/05/20 05:58:13;;;;;;;;;;;16.20;99.90;;;;;;5061029;28;36743;-46
2022/05/20 06:00:40;;;;;;;;;;;16.10;99.90;;;;;;5061219;28;36489;-48
2022/05/20 06:03:08;;;;;;;;;;;16.00;99.90;;;;;;5060943;28;37974;-46
2022/05/20 06:05:37;;;;;;;;;;;15.90;99.90;;;;;;5062790;28;39037;-46
2022/05/20 06:08:04;;;;;;;;;;;15.90;99.90;;;;;;5063578;28;36549;-49
2022/05/20 06:10:31;;;;;;;;;;;16.10;99.90;;;;;;5062968;28;36270;-47
2022/05/20 06:12:58;;;;;;;;;;;16.20;99.90;;;;;;5061874;28;38320;-46
2022/05/20 06:15:26;;;;;;;;;;;16.40;99.90;;;;;;5062761;28;39020;-45
2022/05/20 06:17:54;;;;;;;;;;;16.40;99.90;;;;;;5061986;28;39181;-48
2022/05/20 06:20:21;;;;;;;;;;;16.60;99.90;;;;;;5063520;28;37239;-49
2022/05/20 06:22:50;;;;;;;;;;;16.60;99.90;;;;;;5062399;28;37571;-46
2022/05/20 06:25:17;;;;;;;;;;;16.60;99.90;;;;;;5063330;28;38913;-46
2022/05/20 06:27:45;;;;;;;;;;;16.70;99.90;;;;;;5063671;28;37443;-45
2022/05/20 06:30:13;;;;;;;;;;;16.90;99.90;;;;;;5061312;28;36062;-46
2022/05/20 06:32:40;;;;;;;;;;;17.10;99.90;;;;;;5063398;28;36808;-45
2022/05/20 06:40:44;;;;;;;;;;;17.20;99.30;;;;;;5061788;28;39109;-45
2022/05/20 06:43:12;;;;;;;;;;;17.10;99.90;;;;;;5061225;28;39312;-50
2022/05/20 06:45:39;;;;;;;;;;;16.90;99.90;;;;;;5061343;28;38354;-48
2022/05/20 06:48:06;;;;;;;;;;;16.80;99.90;;;;;;5060052;28;36508;-50
2022/05/20 06:50:36;;;;;;;;;;;16.70;99.90;;;;;;5062600;28;36116;-47
2022/05/20 06:53:05;;;;;;;;;;;16.70;99.90;;;;;;5063859;28;37384;-46
2022/05/20 06:55:32;;;;;;;;;;;16.60;99.90;;;;;;5064160;28;37977;-47
2022/05/20 06:57:59;;;;;;;;;;;16.60;99.90;;;;;;5063727;28;37943;-46
2022/05/20 07:00:27;;;;;;;;;;;16.60;99.90;;;;;;5063719;28;36321;-48
2022/05/20 07:02:54;;;;;;;;;;;16.60;99.90;;;;;;5064891;28;37562;-46
2022/05/20 07:05:21;;;;;;;;;;;16.60;99.90;;;;;;5067236;28;38647;-49
2022/05/20 07:07:48;;;;;;;;;;;16.60;99.90;;;;;;5066072;28;37765;-46
2022/05/20 07:10:17;;;;;;;;;;;16.70;99.90;;;;;;5066661;28;36084;-47
2022/05/20 07:12:44;;;;;;;;;;;16.70;99.90;;;;;;5064594;28;37890;-47
2022/05/20 07:15:11;;;;;;;;;;;16.70;99.90;;;;;;5066249;28;37017;-46
2022/05/20 07:17:39;;;;;;;;;;;16.70;99.90;;;;;;5065913;28;39326;-47
2022/05/20 07:20:07;;;;;;;;;;;16.70;99.90;;;;;;5065490;28;37531;-48
2022/05/20 07:22:34;;;;;;;;;;;16.70;99.90;;;;;;5067173;28;38749;-46
2022/05/20 07:25:01;;;;;;;;;;;16.90;99.90;;;;;;5062230;28;38516;-47
2022/05/20 07:27:31;;;;;;;;;;;17.10;99.90;;;;;;5056645;28;38253;-47
2022/05/20 07:29:58;;;;;;;;;;;17.30;99.90;;;;;;5058132;28;36432;-46
2022/05/20 07:32:25;;;;;;;;;;;17.50;99.90;;;;;;5058816;28;39328;-50
2022/05/20 07:34:52;;;;;;;;;;;17.60;99.90;;;;;;5058871;28;37986;-46
2022/05/20 07:37:19;;;;;;;;;;;17.70;99.10;;;;;;5059015;28;38268;-47
2022/05/20 07:39:46;;;;;;;;;;;17.70;98.80;;;;;;5059640;28;36123;-47
2022/05/20 07:42:13;;;;;;;;;;;17.60;98.70;;;;;;5058346;28;38358;-45
2022/05/20 07:44:42;;;;;;;;;;;17.50;98.40;;;;;;5058001;28;38631;-46
2022/05/20 07:47:09;;;;;;;;;;;17.30;98.50;;;;;;5058718;28;36490;-46
2022/05/20 07:49:36;;;;;;;;;;;17.20;99.20;;;;;;5059348;28;36122;-47
2022/05/20 07:52:04;;;;;;;;;;;17.10;98.70;;;;;;5058448;28;36400;-49
2022/05/20 07:54:32;;;;;;;;;;;17.10;99.00;;;;;;5056221;28;37729;-47
2022/05/20 07:57:01;;;;;;;;;;;17.20;99.10;;;;;;5059027;28;38433;-50
2022/05/20 07:59:30;;;;;;;;;;;17.40;99.30;;;;;;5058954;28;36534;-46
2022/05/20 08:02:01;;;;;;;;;;;17.50;98.70;;;;;;5057041;28;39445;-46
2022/05/20 08:07:16;;;;;;;;;;;17.80;99.30;;;;;;5057117;28;38376;-46
2022/05/20 08:09:44;;;;;;;;;;;18.00;98.60;;;;;;5056060;28;35947;-47
2022/05/20 08:12:11;;;;;;;;;;;18.10;98.60;;;;;;5057466;28;38764;-46
2022/05/20 08:14:38;;;;;;;;;;;18.10;98.10;;;;;;5056441;28;38018;-47
2022/05/20 08:17:07;;;;;;;;;;;18.20;98.90;;;;;;5057244;28;37923;-50
2022/05/20 08:19:34;;;;;;;;;;;18.30;98.50;;;;;;5057321;28;36371;-46
2022/05/20 08:22:01;;;;;;;;;;;18.30;98.00;;;;;;5056942;28;38354;-47
2022/05/20 08:24:29;;;;;;;;;;;18.30;98.00;;;;;;5057143;28;37905;-46
2022/05/20 08:26:58;;;;;;;;;;;18.40;97.90;;;;;;5056912;28;38302;-46
2022/05/20 08:29:25;;;;;;;;;;;18.50;97.00;;;;;;5056970;28;36474;-49
2022/05/20 08:31:52;;;;;;;;;;;18.50;96.70;;;;;;5057716;28;38383;-46
2022/05/20 08:34:21;;;;;;;;;;;18.50;96.00;;;;;;5055630;28;36832;-46
2022/05/20 08:36:48;;;;;;;;;;;18.40;96.20;;;;;;5055749;28;36707;-47
2022/05/20 08:39:15;;;;;;;;;;;18.40;96.20;;;;;;5056491;28;35969;-49
2022/05/20 08:41:46;;;;;;;;;;;18.40;96.60;;;;;;5053734;28;38281;-46
2022/05/20 08:44:14;;;;;;;;;;;18.30;94.90;;;;;;5055985;28;38518;-46
2022/05/20 08:46:41;;;;;;;;;;;18.20;95.10;;;;;;5053494;28;37777;-47
2022/05/20 08:49:10;;;;;;;;;;;18.30;95.50;;;;;;5054892;28;34703;-48
2022/05/20 08:51:39;;;;;;;;;;;18.30;95.00;;;;;;5055156;28;36480;-48
2022/05/20 08:54:07;;;;;;;;;;;18.40;95.50;;;;;;5055416;28;38827;-45
2022/05/20 08:56:37;;;;;;;;;;;18.50;95.50;;;;;;5055227;28;36208;-46
2022/05/20 08:59:06;;;;;;;;;;;18.60;94.30;;;;;;5055229;28;38413;-46
2022/05/20 09:01:36;;;;;;;;;;;18.70;93.90;;;;;;5050812;28;37948;-46
2022/05/20 09:04:03;;;;;;;;;;;18.70;93.40;;;;;;5052526;28;34832;-48
2022/05/20 09:06:30;;;;;;;;;;;18.80;94.90;;;;;;5053997;28;37701;-60
2022/05/20 09:09:07;;;;;;;;;;;18.80;95.60;;;;;;5050953;28;35095;-60
2022/05/20 09:11:34;;;;;;;;;;;18.90;93.90;;;;;;5055074;28;37837;-59
2022/05/20 09:16:58;;;;;;;;;;;19.00;92.30;;;;;;5055160;28;39561;-60
2022/05/20 09:19:26;;;;;;;;;;;19.10;93.20;;;;;;5054625;28;36382;-60
2022/05/20 09:22:00;;;;;;;;;;;19.10;94.40;;;;;;5055961;28;38578;-60
2022/05/20 09:24:35;;;;;;;;;;;19.10;94.50;;;;;;5054486;28;37025;-59
2022/05/20 09:27:04;;;;;;;;;;;19.10;93.40;;;;;;5054530;28;37062;-60
2022/05/20 09:29:34;;;;;;;;;;;19.10;93.80;;;;;;5055284;28;35976;-59
2022/05/20 09:32:03;;;;;;;;;;;19.10;92.50;;;;;;5052383;28;38268;-60
2022/05/20 09:34:32;;;;;;;;;;;19.10;92.20;;;;;;5054630;28;38389;-60
2022/05/20 09:37:00;;;;;;;;;;;19.10;92.60;;;;;;5053113;28;37836;-60
2022/05/20 09:39:32;;;;;;;;;;;19.00;93.40;;;;;;5054486;28;37030;-59
2022/05/20 09:42:04;;;;;;;;;;;19.00;93.80;;;;;;5053969;28;38758;-59
2022/05/20 09:44:38;;;;;;;;;;;19.10;93.70;;;;;;5054421;28;38955;-47
2022/05/20 09:47:09;;;;;;;;;;;19.10;93.20;;;;;;5050882;28;36710;-47
2022/05/20 09:49:42;;;;;;;;;;;19.10;93.80;;;;;;5053666;28;37589;-49
2022/05/20 09:52:24;;;;;;;;;;;19.00;93.00;;;;;;5054380;28;37113;-48
2022/05/20 09:54:59;;;;;;;;;;;19.00;93.50;;;;;;5051791;28;39182;-48
2022/05/20 09:57:29;;;;;;;;;;;19.00;92.40;;;;;;5052695;28;38235;-47
2022/05/20 10:00:00;;;;;;;;;;;19.00;92.20;;;;;;5052399;28;35189;-47
2022/05/20 10:02:29;;;;;;;;;;;18.90;90.40;;;;;;5049885;28;39472;-47
2022/05/20 10:04:59;;;;;;;;;;;18.90;92.00;;;;;;5049545;28;37844;-49
2022/05/20 10:07:31;;;;;;;;;;;18.80;92.90;;;;;;5052570;28;37896;-46
2022/05/20 10:10:04;;;;;;;;;;;18.80;93.30;;;;;;5052762;28;37350;-46
2022/05/20 10:12:33;;;;;;;;;;;18.80;93.20;;;;;;5051568;28;39451;-46
2022/05/20 10:15:03;;;;;;;;;;;18.80;92.80;;;;;;5054268;28;38308;-48
2022/05/20 10:17:38;;;;;;;;;;;18.70;91.80;;;;;;5053511;28;37591;-47
2022/05/20 10:20:11;;;;;;;;;;;18.70;93.00;;;;;;5050750;28;36242;-47
2022/05/20 10:22:44;;;;;;;;;;;18.70;93.90;;;;;;5050255;28;36515;-46
2022/05/20 10:25:14;;;;;;;;;;;18.70;94.40;;;;;;5051687;28;38242;-47
2022/05/20 10:28:00;;;;;;;;;;;18.70;93.20;;;;;;5047019;28;38800;-46
2022/05/20 10:33:15;;;;;;;;;;;18.70;92.80;;;;;;5054917;28;38776;-46
2022/05/20 10:35:51;;;;;;;;;;;18.70;91.90;;;;;;5055398;28;38045;-47
2022/05/20 10:38:32;;;;;;;;;;;18.70;92.00;;;;;;5054531;28;38556;-47
2022/05/20 10:41:02;;;;;;;;;;;18.70;92.10;;;;;;5050856;28;36604;-49
2022/05/20 10:48:34;;;;;;;;;;;18.70;92.10;;;;;;5053914;28;37727;-48
2022/05/20 10:49:18;;;;;;;;;;;18.80;92.50;;;;;;5053770;28;39947;-45
2022/05/20 10:51:54;;;;;;;;;;;18.80;91.80;;;;;;5049765;28;36426;-49
2022/05/20 10:54:32;;;;;;;;;;;18.70;92.40;;;;;;5052178;28;38395;-48
2022/05/20 10:57:07;;;;;;;;;;;18.70;92.40;;;;;;5049339;28;38483;-47
2022/05/20 10:59:45;;;;;;;;;;;18.70;93.30;;;;;;5053676;28;37583;-47
2022/05/20 11:02:30;;;;;;;;;;;18.80;92.40;;;;;;5050904;28;35691;-48
2022/05/20 11:05:03;;;;;;;;;;;18.80;93.00;;;;;;5037792;28;36466;-48
2022/05/20 11:07:38;;;;;;;;;;;18.90;92.50;;;;;;5052648;28;40233;-49
2022/05/20 11:10:15;;;;;;;;;;;18.90;92.90;;;;;;5049900;28;37332;-47
2022/05/20 11:12:48;;;;;;;;;;;18.90;91.80;;;;;;5052656;28;37490;-47
2022/05/20 11:15:21;;;;;;;;;;;19.00;91.00;;;;;;5051624;28;38586;-46
2022/05/20 11:17:59;;;;;;;;;;;18.80;90.40;;;;;;5051101;28;38529;-48
2022/05/20 11:20:37;;;;;;;;;;;18.80;90.60;;;;;;5050290;28;37491;-47
2022/05/20 11:23:23;;;;;;;;;;;18.80;87.90;;;;;;5052424;28;35170;-46
2022/05/20 11:26:01;;;;;;;;;;;18.80;91.60;;;;;;5050789;28;38622;-47
2022/05/20 11:28:34;;;;;;;;;;;18.90;91.30;;;;;;5053774;28;37641;-46
2022/05/20 11:31:07;;;;;;;;;;;19.00;90.60;;;;;;5052842;28;38141;-48
2022/05/20 11:34:01;;;;;;;;;;;19.00;90.50;;;;;;5051780;28;36524;-47
2022/05/20 11:36:47;;;;;;;;;;;19.00;91.10;;;;;;5005253;28;39406;-47
2022/05/20 11:39:29;;;;;;;;;;;19.10;89.70;;;;;;5054035;28;38817;-47
2022/05/20 11:42:03;;;;;;;;;;;19.10;91.70;;;;;;5052616;28;38797;-59
2022/05/20 11:44:43;;;;;;;;;;;19.20;91.40;;;;;;5052019;28;38399;-59
2022/05/20 11:47:18;;;;;;;;;;;19.20;91.90;;;;;;5052832;28;36472;-59
2022/05/20 11:49:54;;;;;;;;;;;19.20;92.20;;;;;;5051547;28;39921;-60
2022/05/20 11:52:42;;;;;;;;;;;19.20;92.00;;;;;;5052575;28;37470;-59
2022/05/20 11:55:13;;;;;;;;;;;19.30;93.10;;;;;;5053266;28;35029;-60
2022/05/20 11:57:43;;;;;;;;;;;19.30;92.20;;;;;;5052696;28;36438;-59
2022/05/20 12:00:14;;;;;;;;;;;19.30;92.30;;;;;;5051628;28;39057;-60
2022/05/20 12:02:42;;;;;;;;;;;19.40;92.70;;;;;;5052009;28;36544;-59
2022/05/20 12:05:11;;;;;;;;;;;19.40;91.90;;;;;;5051970;28;37422;-60
2022/05/20 12:07:38;;;;;;;;;;;19.40;92.00;;;;;;5052495;28;38238;-60
2022/05/20 12:10:16;;;;;;;;;;;19.40;92.40;;;;;;5052822;28;37730;-61
2022/05/20 12:12:51;;;;;;;;;;;19.30;91.20;;;;;;5054119;28;38411;-60
2022/05/20 12:15:42;;;;;;;;;;;19.30;92.00;;;;;;5054177;28;36540;-59
2022/05/20 12:24:11;;;;;;;;;;;19.30;91.00;;;;;;5052876;28;37584;-60
2022/05/20 12:24:14;;;;;;;;;;;19.20;88.90;;;;;;5053438;28;39329;-60
2022/05/20 12:26:47;;;;;;;;;;;19.20;90.30;;;;;;5053165;28;37103;-61
2022/05/20 12:29:33;;;;;;;;;;;19.20;89.20;;;;;;5053613;28;37662;-60
2022/05/20 12:32:00;;;;;;;;;;;19.20;84.50;;;;;;5052284;28;38550;-60
2022/05/20 12:34:41;;;;;;;;;;;19.20;84.70;;;;;;5052507;28;36280;-60
2022/05/20 12:37:08;;;;;;;;;;;19.20;83.30;;;;;;5054075;28;36547;-60
2022/05/20 12:39:47;;;;;;;;;;;19.20;82.50;;;;;;5053273;28;40174;-60
2022/05/20 12:42:22;;;;;;;;;;;19.30;84.80;;;;;;5053182;28;38149;-60
2022/05/20 12:44:49;;;;;;;;;;;19.40;83.70;;;;;;5050456;28;37936;-60
2022/05/20 12:47:27;;;;;;;;;;;19.50;83.60;;;;;;5053153;28;35964;-46
2022/05/20 12:50:01;;;;;;;;;;;19.50;82.00;;;;;;5052966;28;37457;-48
2022/05/20 12:52:31;;;;;;;;;;;19.50;81.50;;;;;;5053370;28;37127;-48
2022/05/20 12:54:59;;;;;;;;;;;19.40;80.20;;;;;;5052713;28;38049;-46
2022/05/20 12:57:27;;;;;;;;;;;19.40;79.80;;;;;;5053294;28;35014;-48
2022/05/20 12:59:56;;;;;;;;;;;19.40;74.40;;;;;;5053651;28;35496;-48
2022/05/20 13:02:27;;;;;;;;;;;19.30;75.10;;;;;;5053357;28;38302;-48
2022/05/20 13:04:59;;;;;;;;;;;19.30;74.00;;;;;;5050469;28;38056;-47
2022/05/20 13:07:27;;;;;;;;;;;19.30;72.90;;;;;;5050895;28;36870;-49
2022/05/20 13:09:54;;;;;;;;;;;19.30;71.00;;;;;;5052671;28;37835;-47
2022/05/20 13:12:22;;;;;;;;;;;19.30;76.70;;;;;;5052149;28;38587;-47
2022/05/20 13:14:56;;;;;;;;;;;19.30;78.50;;;;;;5052697;28;38223;-46
2022/05/20 13:17:23;;;;;;;;;;;19.20;74.50;;;;;;5052503;28;37346;-46
2022/05/20 13:19:51;;;;;;;;;;;19.20;78.90;;;;;;5051583;28;37180;-47
2022/05/20 13:22:22;;;;;;;;;;;19.20;79.70;;;;;;5052951;28;42278;-48
2022/05/20 13:24:53;;;;;;;;;;;19.20;82.50;;;;;;5052160;28;37631;-47
2022/05/20 13:27:21;;;;;;;;;;;19.10;83.10;;;;;;5052490;28;36479;-48
2022/05/20 13:29:49;;;;;;;;;;;19.00;85.90;;;;;;5051518;28;36539;-47
2022/05/20 13:32:20;;;;;;;;;;;19.00;88.20;;;;;;5051539;28;38592;-47
2022/05/20 13:34:48;;;;;;;;;;;19.00;85.70;;;;;;5050256;28;38176;-48
2022/05/20 13:37:18;;;;;;;;;;;19.00;86.10;;;;;;5050709;28;38535;-47
2022/05/20 13:39:46;;;;;;;;;;;19.00;86.20;;;;;;5050518;28;38085;-49
2022/05/20 13:42:15;;;;;;;;;;;19.00;86.40;;;;;;5052587;28;36868;-60
2022/05/20 13:44:43;;;;;;;;;;;18.90;83.40;;;;;;5053000;28;37712;-60
2022/05/20 13:49:55;;;;;;;;;;;18.80;85.80;;;;;;5051787;28;39810;-60
2022/05/20 13:52:22;;;;;;;;;;;18.80;84.90;;;;;;5051862;28;37329;-60
2022/05/20 13:54:53;;;;;;;;;;;18.80;83.40;;;;;;5051110;28;37665;-60
2022/05/20 13:57:21;;;;;;;;;;;18.80;85.00;;;;;;5055388;28;37044;-60
2022/05/20 13:59:49;;;;;;;;;;;18.70;88.20;;;;;;5054065;28;38494;-59
2022/05/20 14:02:17;;;;;;;;;;;18.70;90.20;;;;;;5052749;28;38150;-60
2022/05/20 14:04:45;;;;;;;;;;;18.60;92.60;;;;;;5053175;28;38471;-60
2022/05/20 14:07:16;;;;;;;;;;;18.50;95.10;;;;;;5055426;28;37586;-60
2022/05/20 14:09:46;;;;;;;;;;;18.40;96.70;;;;;;5054977;28;39372;-59
2022/05/20 14:12:15;;;;;;;;;;;18.20;97.70;;;;;;5056671;28;37896;-59
2022/05/20 14:14:42;;;;;;;;;;;18.10;98.50;;;;;;5055389;28;38378;-59
2022/05/20 14:17:10;;;;;;;;;;;17.90;99.30;;;;;;5054677;28;36931;-59
2022/05/20 14:19:40;;;;;;;;;;;17.80;99.80;;;;;;5054962;28;37595;-59
2022/05/20 14:22:09;;;;;;;;;;;17.70;99.90;;;;;;5055609;28;37354;-59
2022/05/20 14:24:37;;;;;;;;;;;17.60;99.90;;;;;;5055113;28;38736;-59
2022/05/20 14:27:05;;;;;;;;;;;17.50;99.90;;;;;;5055517;28;33519;-59
2022/05/20 14:29:36;;;;;;;;;;;17.40;99.90;;;;;;5055296;28;36415;-59
2022/05/20 14:32:04;;;;;;;;;;;17.30;99.90;;;;;;5053507;28;38057;-59
2022/05/20 14:34:33;;;;;;;;;;;17.30;99.90;;;;;;5053883;28;38294;-60
2022/05/20 14:37:05;;;;;;;;;;;17.30;99.90;;;;;;5053848;28;36514;-59
2022/05/20 14:39:32;;;;;;;;;;;17.20;99.90;;;;;;5054250;28;39064;-59
2022/05/20 14:42:00;;;;;;;;;;;17.20;99.90;;;;;;5054307;28;38185;-59
2022/05/20 14:44:28;;;;;;;;;;;17.20;99.90;;;;;;5053258;28;39114;-60
2022/05/20 14:47:17;;;;;;;;;;;17.10;99.90;;;;;;5053228;28;37718;-59
2022/05/20 14:49:46;;;;;;;;;;;17.10;99.90;;;;;;5054527;28;37938;-59
2022/05/20 14:52:23;;;;;;;;;;;16.90;99.90;;;;;;5053911;28;37135;-59
2022/05/20 14:54:50;;;;;;;;;;;16.90;99.90;;;;;;5053940;28;37310;-59
2022/05/20 14:57:27;;;;;;;;;;;16.90;99.90;;;;;;5055555;28;35192;-59
2022/05/20 15:00:19;;;;;;;;;;;16.90;99.90;;;;;;5055250;28;38471;-58
2022/05/20 15:02:48;;;;;;;;;;;16.80;99.90;;;;;;5028907;28;38262;-59
2022/05/20 15:05:15;;;;;;;;;;;16.80;99.90;;;;;;5054483;28;36211;-59
2022/05/20 15:07:42;;;;;;;;;;;16.70;99.90;;;;;;5053332;28;36465;-59
2022/05/20 15:10:14;;;;;;;;;;;16.70;99.90;;;;;;5052868;28;39382;-59
2022/05/20 15:12:41;;;;;;;;;;;16.70;99.90;;;;;;5054921;28;37427;-59
2022/05/20 15:15:08;;;;;;;;;;;16.70;99.90;;;;;;5054216;28;37458;-59